sensor_id;sensor_type;location;lat;lon;timestamp;P1;durP1;ratioP1;P2;durP2;ratioP2
9722;SDS011;4900;49.306;8.500;2023-04-24T00:01:31;1.45;;;1.30;;
9722;SDS011;4900;49.306;8.500;2023-04-24T00:03:56;1.27;;;1.17;;
9722;SDS011;4900;49.306;8.500;2023-04-24T00:06:25;1.30;;;1.10;;
9722;SDS011;4900;49.306;8.500;2023-04-24T00:08:58;1.88;;;1.20;;
9722;SDS011;4900;49.306;8.500;2023-04-24T00:11:26;1.40;;;1.30;;
9722;SDS011;4900;49.306;8.500;2023-04-24T00:13:52;1.33;;;1.23;;
9722;SDS011;4900;49.306;8.500;2023-04-24T00:16:18;1.42;;;1.13;;
9722;SDS011;4900;49.306;8.500;2023-04-24T00:18:44;1.45;;;1.23;;
9722;SDS011;4900;49.306;8.500;2023-04-24T00:21:10;1.30;;;1.20;;
9722;SDS011;4900;49.306;8.500;2023-04-24T00:23:35;1.20;;;1.10;;
9722;SDS011;4900;49.306;8.500;2023-04-24T00:26:01;1.98;;;1.20;;
9722;SDS011;4900;49.306;8.500;2023-04-24T00:28:27;1.42;;;1.10;;
9722;SDS011;4900;49.306;8.500;2023-04-24T00:30:52;1.65;;;1.35;;
9722;SDS011;4900;49.306;8.500;2023-04-24T00:33:18;1.27;;;1.17;;
9722;SDS011;4900;49.306;8.500;2023-04-24T00:35:43;1.30;;;1.20;;
9722;SDS011;4900;49.306;8.500;2023-04-24T00:38:09;1.20;;;1.10;;
9722;SDS011;4900;49.306;8.500;2023-04-24T00:40:35;1.40;;;1.20;;
9722;SDS011;4900;49.306;8.500;2023-04-24T00:43:00;1.67;;;1.25;;
9722;SDS011;4900;49.306;8.500;2023-04-24T00:45:26;1.52;;;1.20;;
9722;SDS011;4900;49.306;8.500;2023-04-24T00:47:52;1.20;;;1.10;;
9722;SDS011;4900;49.306;8.500;2023-04-24T00:50:18;2.08;;;1.30;;
9722;SDS011;4900;49.306;8.500;2023-04-24T00:52:44;1.20;;;1.10;;
9722;SDS011;4900;49.306;8.500;2023-04-24T00:55:10;2.38;;;1.10;;
9722;SDS011;4900;49.306;8.500;2023-04-24T00:57:36;1.38;;;1.27;;
9722;SDS011;4900;49.306;8.500;2023-04-24T01:00:03;1.20;;;1.10;;
9722;SDS011;4900;49.306;8.500;2023-04-24T01:02:30;1.50;;;1.30;;
9722;SDS011;4900;49.306;8.500;2023-04-24T01:05:00;1.30;;;1.20;;
9722;SDS011;4900;49.306;8.500;2023-04-24T01:07:26;1.30;;;1.20;;
9722;SDS011;4900;49.306;8.500;2023-04-24T01:09:52;1.77;;;1.30;;
9722;SDS011;4900;49.306;8.500;2023-04-24T01:12:18;1.63;;;1.30;;
9722;SDS011;4900;49.306;8.500;2023-04-24T01:14:45;1.20;;;1.10;;
9722;SDS011;4900;49.306;8.500;2023-04-24T01:17:11;2.33;;;1.13;;
9722;SDS011;4900;49.306;8.500;2023-04-24T01:19:37;1.30;;;1.20;;
9722;SDS011;4900;49.306;8.500;2023-04-24T01:22:03;1.30;;;1.20;;
9722;SDS011;4900;49.306;8.500;2023-04-24T01:24:37;1.67;;;1.10;;
9722;SDS011;4900;49.306;8.500;2023-04-24T01:27:03;1.20;;;1.10;;
9722;SDS011;4900;49.306;8.500;2023-04-24T01:29:28;1.50;;;1.25;;
9722;SDS011;4900;49.306;8.500;2023-04-24T01:31:54;1.20;;;1.10;;
9722;SDS011;4900;49.306;8.500;2023-04-24T01:34:20;1.50;;;1.13;;
9722;SDS011;4900;49.306;8.500;2023-04-24T01:36:46;1.30;;;1.13;;
9722;SDS011;4900;49.306;8.500;2023-04-24T01:39:12;1.27;;;1.13;;
9722;SDS011;4900;49.306;8.500;2023-04-24T01:41:38;0.80;;;0.80;;
9722;SDS011;4900;49.306;8.500;2023-04-24T01:44:03;1.23;;;1.13;;
9722;SDS011;4900;49.306;8.500;2023-04-24T01:46:29;1.40;;;1.30;;
9722;SDS011;4900;49.306;8.500;2023-04-24T01:48:56;1.20;;;1.10;;
9722;SDS011;4900;49.306;8.500;2023-04-24T01:51:24;1.50;;;1.30;;
9722;SDS011;4900;49.306;8.500;2023-04-24T01:53:53;1.30;;;1.20;;
9722;SDS011;4900;49.306;8.500;2023-04-24T01:56:19;2.03;;;1.23;;
9722;SDS011;4900;49.306;8.500;2023-04-24T01:58:45;1.98;;;1.00;;
9722;SDS011;4900;49.306;8.500;2023-04-24T02:01:15;3.30;;;1.20;;
9722;SDS011;4900;49.306;8.500;2023-04-24T02:03:44;1.97;;;1.30;;
9722;SDS011;4900;49.306;8.500;2023-04-24T02:06:11;1.37;;;1.10;;
9722;SDS011;4900;49.306;8.500;2023-04-24T02:08:37;1.20;;;1.10;;
9722;SDS011;4900;49.306;8.500;2023-04-24T02:11:03;5.00;;;1.30;;
9722;SDS011;4900;49.306;8.500;2023-04-24T02:13:28;1.47;;;1.20;;
9722;SDS011;4900;49.306;8.500;2023-04-24T02:15:54;1.27;;;1.17;;
9722;SDS011;4900;49.306;8.500;2023-04-24T02:18:19;1.20;;;1.10;;
9722;SDS011;4900;49.306;8.500;2023-04-24T02:20:45;1.37;;;1.10;;
9722;SDS011;4900;49.306;8.500;2023-04-24T02:23:11;1.57;;;1.10;;
9722;SDS011;4900;49.306;8.500;2023-04-24T02:25:36;1.23;;;1.13;;
9722;SDS011;4900;49.306;8.500;2023-04-24T02:28:02;1.30;;;1.20;;
9722;SDS011;4900;49.306;8.500;2023-04-24T02:30:28;1.30;;;1.20;;
9722;SDS011;4900;49.306;8.500;2023-04-24T02:32:53;1.10;;;1.00;;
9722;SDS011;4900;49.306;8.500;2023-04-24T02:35:20;1.30;;;1.10;;
9722;SDS011;4900;49.306;8.500;2023-04-24T02:37:45;1.20;;;1.10;;
9722;SDS011;4900;49.306;8.500;2023-04-24T02:40:11;1.93;;;1.30;;
9722;SDS011;4900;49.306;8.500;2023-04-24T02:42:36;1.30;;;1.20;;
9722;SDS011;4900;49.306;8.500;2023-04-24T02:45:02;1.30;;;1.17;;
9722;SDS011;4900;49.306;8.500;2023-04-24T02:47:28;1.40;;;1.10;;
9722;SDS011;4900;49.306;8.500;2023-04-24T02:49:53;1.23;;;1.13;;
9722;SDS011;4900;49.306;8.500;2023-04-24T02:52:18;1.40;;;1.30;;
9722;SDS011;4900;49.306;8.500;2023-04-24T02:54:44;1.20;;;1.10;;
9722;SDS011;4900;49.306;8.500;2023-04-24T02:57:09;1.00;;;1.00;;
9722;SDS011;4900;49.306;8.500;2023-04-24T02:59:35;1.30;;;1.20;;
9722;SDS011;4900;49.306;8.500;2023-04-24T03:02:00;1.40;;;1.30;;
9722;SDS011;4900;49.306;8.500;2023-04-24T03:04:26;1.83;;;1.67;;
9722;SDS011;4900;49.306;8.500;2023-04-24T03:06:52;1.70;;;1.53;;
9722;SDS011;4900;49.306;8.500;2023-04-24T03:09:20;1.90;;;1.50;;
9722;SDS011;4900;49.306;8.500;2023-04-24T03:11:47;1.47;;;1.30;;
9722;SDS011;4900;49.306;8.500;2023-04-24T03:14:14;2.00;;;1.40;;
9722;SDS011;4900;49.306;8.500;2023-04-24T03:16:40;1.70;;;1.50;;
9722;SDS011;4900;49.306;8.500;2023-04-24T03:19:06;2.40;;;1.30;;
9722;SDS011;4900;49.306;8.500;2023-04-24T03:21:31;1.57;;;1.47;;
9722;SDS011;4900;49.306;8.500;2023-04-24T03:23:57;2.95;;;1.48;;
9722;SDS011;4900;49.306;8.500;2023-04-24T03:26:22;2.00;;;1.30;;
9722;SDS011;4900;49.306;8.500;2023-04-24T03:28:48;1.63;;;1.40;;
9722;SDS011;4900;49.306;8.500;2023-04-24T03:31:13;2.10;;;1.70;;
9722;SDS011;4900;49.306;8.500;2023-04-24T03:33:40;2.20;;;1.40;;
9722;SDS011;4900;49.306;8.500;2023-04-24T03:36:06;1.50;;;1.40;;
9722;SDS011;4900;49.306;8.500;2023-04-24T03:38:31;2.10;;;1.87;;
9722;SDS011;4900;49.306;8.500;2023-04-24T03:40:57;2.87;;;1.90;;
9722;SDS011;4900;49.306;8.500;2023-04-24T03:43:22;2.83;;;2.10;;
9722;SDS011;4900;49.306;8.500;2023-04-24T03:45:48;2.27;;;1.83;;
9722;SDS011;4900;49.306;8.500;2023-04-24T03:48:14;1.80;;;1.70;;
9722;SDS011;4900;49.306;8.500;2023-04-24T03:50:39;1.95;;;1.63;;
9722;SDS011;4900;49.306;8.500;2023-04-24T03:53:05;2.00;;;1.60;;
9722;SDS011;4900;49.306;8.500;2023-04-24T03:55:30;1.90;;;1.80;;
9722;SDS011;4900;49.306;8.500;2023-04-24T03:57:55;2.27;;;2.00;;
9722;SDS011;4900;49.306;8.500;2023-04-24T04:00:21;2.30;;;1.97;;
9722;SDS011;4900;49.306;8.500;2023-04-24T04:02:46;2.20;;;2.00;;
9722;SDS011;4900;49.306;8.500;2023-04-24T04:05:12;2.60;;;2.10;;
9722;SDS011;4900;49.306;8.500;2023-04-24T04:07:37;2.40;;;2.17;;
9722;SDS011;4900;49.306;8.500;2023-04-24T04:10:03;3.20;;;2.03;;
9722;SDS011;4900;49.306;8.500;2023-04-24T04:12:28;2.50;;;2.00;;
9722;SDS011;4900;49.306;8.500;2023-04-24T04:14:54;2.63;;;1.83;;
9722;SDS011;4900;49.306;8.500;2023-04-24T04:17:19;3.20;;;2.47;;
9722;SDS011;4900;49.306;8.500;2023-04-24T04:19:45;3.00;;;2.57;;
9722;SDS011;4900;49.306;8.500;2023-04-24T04:22:11;3.50;;;2.50;;
9722;SDS011;4900;49.306;8.500;2023-04-24T04:24:37;3.23;;;2.40;;
9722;SDS011;4900;49.306;8.500;2023-04-24T04:27:03;3.00;;;2.40;;
9722;SDS011;4900;49.306;8.500;2023-04-24T04:29:30;2.80;;;2.33;;
9722;SDS011;4900;49.306;8.500;2023-04-24T04:31:56;2.40;;;2.20;;
9722;SDS011;4900;49.306;8.500;2023-04-24T04:34:22;2.60;;;2.07;;
9722;SDS011;4900;49.306;8.500;2023-04-24T04:36:48;2.90;;;2.10;;
9722;SDS011;4900;49.306;8.500;2023-04-24T04:39:13;2.30;;;2.00;;
9722;SDS011;4900;49.306;8.500;2023-04-24T04:41:40;2.00;;;1.80;;
9722;SDS011;4900;49.306;8.500;2023-04-24T04:44:06;2.00;;;1.80;;
9722;SDS011;4900;49.306;8.500;2023-04-24T04:46:33;2.27;;;1.97;;
9722;SDS011;4900;49.306;8.500;2023-04-24T04:49:00;2.63;;;2.30;;
9722;SDS011;4900;49.306;8.500;2023-04-24T04:51:26;3.20;;;2.27;;
9722;SDS011;4900;49.306;8.500;2023-04-24T04:53:52;2.80;;;2.37;;
9722;SDS011;4900;49.306;8.500;2023-04-24T04:56:18;2.97;;;2.20;;
9722;SDS011;4900;49.306;8.500;2023-04-24T04:58:43;3.23;;;2.23;;
9722;SDS011;4900;49.306;8.500;2023-04-24T05:01:09;3.33;;;2.40;;
9722;SDS011;4900;49.306;8.500;2023-04-24T05:03:34;2.73;;;2.40;;
9722;SDS011;4900;49.306;8.500;2023-04-24T05:06:01;3.00;;;2.40;;
9722;SDS011;4900;49.306;8.500;2023-04-24T05:08:27;2.80;;;2.30;;
9722;SDS011;4900;49.306;8.500;2023-04-24T05:10:52;3.57;;;2.67;;
9722;SDS011;4900;49.306;8.500;2023-04-24T05:13:18;3.30;;;2.50;;
9722;SDS011;4900;49.306;8.500;2023-04-24T05:15:44;3.20;;;2.67;;
9722;SDS011;4900;49.306;8.500;2023-04-24T05:18:09;3.60;;;2.70;;
9722;SDS011;4900;49.306;8.500;2023-04-24T05:20:35;2.53;;;2.30;;
9722;SDS011;4900;49.306;8.500;2023-04-24T05:23:00;2.87;;;2.40;;
9722;SDS011;4900;49.306;8.500;2023-04-24T05:25:26;2.87;;;2.40;;
9722;SDS011;4900;49.306;8.500;2023-04-24T05:27:51;2.43;;;2.10;;
9722;SDS011;4900;49.306;8.500;2023-04-24T05:30:18;3.30;;;2.10;;
9722;SDS011;4900;49.306;8.500;2023-04-24T05:32:44;2.23;;;2.03;;
9722;SDS011;4900;49.306;8.500;2023-04-24T05:35:11;2.87;;;2.30;;
9722;SDS011;4900;49.306;8.500;2023-04-24T05:37:36;2.77;;;2.33;;
9722;SDS011;4900;49.306;8.500;2023-04-24T05:40:02;2.80;;;2.50;;
9722;SDS011;4900;49.306;8.500;2023-04-24T05:42:30;5.60;;;2.40;;
9722;SDS011;4900;49.306;8.500;2023-04-24T05:44:56;2.93;;;2.50;;
9722;SDS011;4900;49.306;8.500;2023-04-24T05:47:21;2.87;;;2.50;;
9722;SDS011;4900;49.306;8.500;2023-04-24T05:49:47;2.37;;;2.17;;
9722;SDS011;4900;49.306;8.500;2023-04-24T05:52:13;2.47;;;2.27;;
9722;SDS011;4900;49.306;8.500;2023-04-24T05:54:38;2.13;;;1.93;;
9722;SDS011;4900;49.306;8.500;2023-04-24T05:57:04;3.88;;;2.47;;
9722;SDS011;4900;49.306;8.500;2023-04-24T05:59:33;2.67;;;2.20;;
9722;SDS011;4900;49.306;8.500;2023-04-24T06:01:58;2.50;;;2.10;;
9722;SDS011;4900;49.306;8.500;2023-04-24T06:04:24;2.17;;;1.83;;
9722;SDS011;4900;49.306;8.500;2023-04-24T06:06:50;2.03;;;1.83;;
9722;SDS011;4900;49.306;8.500;2023-04-24T06:09:20;1.88;;;1.77;;
9722;SDS011;4900;49.306;8.500;2023-04-24T06:11:46;2.40;;;2.10;;
9722;SDS011;4900;49.306;8.500;2023-04-24T06:14:12;2.50;;;2.30;;
9722;SDS011;4900;49.306;8.500;2023-04-24T06:16:37;2.40;;;2.20;;
9722;SDS011;4900;49.306;8.500;2023-04-24T06:19:04;3.17;;;2.60;;
9722;SDS011;4900;49.306;8.500;2023-04-24T06:21:29;3.13;;;2.65;;
9722;SDS011;4900;49.306;8.500;2023-04-24T06:23:55;3.20;;;2.70;;
9722;SDS011;4900;49.306;8.500;2023-04-24T06:26:21;3.22;;;2.75;;
9722;SDS011;4900;49.306;8.500;2023-04-24T06:28:47;3.40;;;3.10;;
9722;SDS011;4900;49.306;8.500;2023-04-24T06:31:12;3.80;;;3.00;;
9722;SDS011;4900;49.306;8.500;2023-04-24T06:33:38;4.13;;;2.67;;
9722;SDS011;4900;49.306;8.500;2023-04-24T06:36:03;3.30;;;2.92;;
9722;SDS011;4900;49.306;8.500;2023-04-24T06:38:29;4.40;;;3.25;;
9722;SDS011;4900;49.306;8.500;2023-04-24T06:40:54;3.50;;;3.10;;
9722;SDS011;4900;49.306;8.500;2023-04-24T06:43:20;2.50;;;2.30;;
9722;SDS011;4900;49.306;8.500;2023-04-24T06:45:45;2.72;;;2.40;;
9722;SDS011;4900;49.306;8.500;2023-04-24T06:48:12;3.38;;;2.30;;
9722;SDS011;4900;49.306;8.500;2023-04-24T06:50:37;3.05;;;2.60;;
9722;SDS011;4900;49.306;8.500;2023-04-24T06:53:03;2.50;;;2.30;;
9722;SDS011;4900;49.306;8.500;2023-04-24T06:55:28;2.38;;;2.17;;
9722;SDS011;4900;49.306;8.500;2023-04-24T06:57:53;2.47;;;2.13;;
9722;SDS011;4900;49.306;8.500;2023-04-24T07:00:19;2.03;;;1.83;;
9722;SDS011;4900;49.306;8.500;2023-04-24T07:02:45;2.80;;;2.30;;
9722;SDS011;4900;49.306;8.500;2023-04-24T07:05:10;3.15;;;2.10;;
9722;SDS011;4900;49.306;8.500;2023-04-24T07:07:36;3.28;;;2.83;;
9722;SDS011;4900;49.306;8.500;2023-04-24T07:10:03;3.25;;;2.50;;
9722;SDS011;4900;49.306;8.500;2023-04-24T07:12:29;2.25;;;2.05;;
9722;SDS011;4900;49.306;8.500;2023-04-24T07:14:55;2.08;;;1.70;;
9722;SDS011;4900;49.306;8.500;2023-04-24T07:17:20;1.95;;;1.58;;
9722;SDS011;4900;49.306;8.500;2023-04-24T07:19:46;1.60;;;1.50;;
9722;SDS011;4900;49.306;8.500;2023-04-24T07:22:11;1.77;;;1.42;;
9722;SDS011;4900;49.306;8.500;2023-04-24T07:24:42;1.40;;;1.30;;
9722;SDS011;4900;49.306;8.500;2023-04-24T07:27:08;3.55;;;1.50;;
9722;SDS011;4900;49.306;8.500;2023-04-24T07:29:34;1.60;;;1.50;;
9722;SDS011;4900;49.306;8.500;2023-04-24T07:32:00;1.73;;;1.60;;
9722;SDS011;4900;49.306;8.500;2023-04-24T07:34:26;1.88;;;1.50;;
9722;SDS011;4900;49.306;8.500;2023-04-24T07:36:51;1.60;;;1.50;;
9722;SDS011;4900;49.306;8.500;2023-04-24T07:39:17;1.50;;;1.30;;
9722;SDS011;4900;49.306;8.500;2023-04-24T07:41:43;1.52;;;1.42;;
9722;SDS011;4900;49.306;8.500;2023-04-24T07:44:09;2.03;;;1.45;;
9722;SDS011;4900;49.306;8.500;2023-04-24T07:46:34;1.90;;;1.70;;
9722;SDS011;4900;49.306;8.500;2023-04-24T07:49:00;2.00;;;1.85;;
9722;SDS011;4900;49.306;8.500;2023-04-24T07:51:26;2.17;;;1.60;;
9722;SDS011;4900;49.306;8.500;2023-04-24T07:53:56;1.77;;;1.67;;
9722;SDS011;4900;49.306;8.500;2023-04-24T07:56:21;3.08;;;1.60;;
9722;SDS011;4900;49.306;8.500;2023-04-24T07:58:47;2.00;;;1.73;;
9722;SDS011;4900;49.306;8.500;2023-04-24T08:01:12;2.28;;;1.67;;
9722;SDS011;4900;49.306;8.500;2023-04-24T08:03:38;1.80;;;1.70;;
9722;SDS011;4900;49.306;8.500;2023-04-24T08:06:03;1.70;;;1.50;;
9722;SDS011;4900;49.306;8.500;2023-04-24T08:08:29;2.55;;;1.48;;
9722;SDS011;4900;49.306;8.500;2023-04-24T08:10:54;1.60;;;1.50;;
9722;SDS011;4900;49.306;8.500;2023-04-24T08:13:20;1.77;;;1.65;;
9722;SDS011;4900;49.306;8.500;2023-04-24T08:15:45;1.75;;;1.65;;
9722;SDS011;4900;49.306;8.500;2023-04-24T08:18:11;1.63;;;1.52;;
9722;SDS011;4900;49.306;8.500;2023-04-24T08:20:38;1.50;;;1.40;;
9722;SDS011;4900;49.306;8.500;2023-04-24T08:23:04;1.52;;;1.42;;
9722;SDS011;4900;49.306;8.500;2023-04-24T08:25:30;1.42;;;1.33;;
9722;SDS011;4900;49.306;8.500;2023-04-24T08:27:56;1.50;;;1.40;;
9722;SDS011;4900;49.306;8.500;2023-04-24T08:30:21;1.40;;;1.30;;
9722;SDS011;4900;49.306;8.500;2023-04-24T08:32:47;1.58;;;1.40;;
9722;SDS011;4900;49.306;8.500;2023-04-24T08:35:12;1.30;;;1.20;;
9722;SDS011;4900;49.306;8.500;2023-04-24T08:37:38;1.30;;;1.20;;
9722;SDS011;4900;49.306;8.500;2023-04-24T08:40:05;1.73;;;1.30;;
9722;SDS011;4900;49.306;8.500;2023-04-24T08:42:36;1.58;;;1.35;;
9722;SDS011;4900;49.306;8.500;2023-04-24T08:45:02;1.60;;;1.50;;
9722;SDS011;4900;49.306;8.500;2023-04-24T08:47:28;1.95;;;1.40;;
9722;SDS011;4900;49.306;8.500;2023-04-24T08:49:55;2.53;;;1.50;;
9722;SDS011;4900;49.306;8.500;2023-04-24T08:52:21;1.48;;;1.20;;
9722;SDS011;4900;49.306;8.500;2023-04-24T08:54:47;2.15;;;1.40;;
9722;SDS011;4900;49.306;8.500;2023-04-24T08:57:12;2.45;;;1.60;;
9722;SDS011;4900;49.306;8.500;2023-04-24T08:59:40;1.77;;;1.50;;
9722;SDS011;4900;49.306;8.500;2023-04-24T09:02:08;1.85;;;1.30;;
9722;SDS011;4900;49.306;8.500;2023-04-24T09:04:36;1.88;;;1.40;;
9722;SDS011;4900;49.306;8.500;2023-04-24T09:07:02;1.40;;;1.30;;
9722;SDS011;4900;49.306;8.500;2023-04-24T09:09:30;1.60;;;1.50;;
9722;SDS011;4900;49.306;8.500;2023-04-24T09:11:57;1.73;;;1.50;;
9722;SDS011;4900;49.306;8.500;2023-04-24T09:14:23;1.50;;;1.40;;
9722;SDS011;4900;49.306;8.500;2023-04-24T09:16:49;1.48;;;1.30;;
9722;SDS011;4900;49.306;8.500;2023-04-24T09:19:15;1.60;;;1.50;;
9722;SDS011;4900;49.306;8.500;2023-04-24T09:21:41;1.58;;;1.48;;
9722;SDS011;4900;49.306;8.500;2023-04-24T09:24:14;1.75;;;1.50;;
9722;SDS011;4900;49.306;8.500;2023-04-24T09:26:45;1.50;;;1.40;;
9722;SDS011;4900;49.306;8.500;2023-04-24T09:29:17;1.70;;;1.40;;
9722;SDS011;4900;49.306;8.500;2023-04-24T09:31:44;1.60;;;1.50;;
9722;SDS011;4900;49.306;8.500;2023-04-24T09:34:10;1.80;;;1.70;;
9722;SDS011;4900;49.306;8.500;2023-04-24T09:36:42;1.83;;;1.70;;
9722;SDS011;4900;49.306;8.500;2023-04-24T09:39:09;1.63;;;1.52;;
9722;SDS011;4900;49.306;8.500;2023-04-24T09:41:57;1.63;;;1.50;;
9722;SDS011;4900;49.306;8.500;2023-04-24T09:44:24;2.05;;;1.83;;
9722;SDS011;4900;49.306;8.500;2023-04-24T09:46:53;2.15;;;1.95;;
9722;SDS011;4900;49.306;8.500;2023-04-24T09:49:26;1.90;;;1.73;;
9722;SDS011;4900;49.306;8.500;2023-04-24T09:52:08;2.47;;;1.50;;
9722;SDS011;4900;49.306;8.500;2023-04-24T09:54:35;1.95;;;1.75;;
9722;SDS011;4900;49.306;8.500;2023-04-24T09:57:01;2.33;;;2.00;;
9722;SDS011;4900;49.306;8.500;2023-04-24T09:59:27;2.33;;;2.13;;
9722;SDS011;4900;49.306;8.500;2023-04-24T10:01:53;2.17;;;1.92;;
9722;SDS011;4900;49.306;8.500;2023-04-24T10:04:25;2.47;;;1.98;;
9722;SDS011;4900;49.306;8.500;2023-04-24T10:06:52;2.40;;;2.00;;
9722;SDS011;4900;49.306;8.500;2023-04-24T10:09:20;2.33;;;2.03;;
9722;SDS011;4900;49.306;8.500;2023-04-24T10:11:48;2.22;;;2.00;;
9722;SDS011;4900;49.306;8.500;2023-04-24T10:14:16;2.42;;;2.22;;
9722;SDS011;4900;49.306;8.500;2023-04-24T10:16:43;2.50;;;1.90;;
9722;SDS011;4900;49.306;8.500;2023-04-24T10:19:09;2.90;;;2.45;;
9722;SDS011;4900;49.306;8.500;2023-04-24T10:21:36;2.20;;;2.00;;
9722;SDS011;4900;49.306;8.500;2023-04-24T10:24:07;2.13;;;1.92;;
9722;SDS011;4900;49.306;8.500;2023-04-24T10:26:36;2.22;;;2.03;;
9722;SDS011;4900;49.306;8.500;2023-04-24T10:29:02;2.38;;;1.65;;
9722;SDS011;4900;49.306;8.500;2023-04-24T10:31:34;2.00;;;1.80;;
9722;SDS011;4900;49.306;8.500;2023-04-24T10:34:01;1.77;;;1.67;;
9722;SDS011;4900;49.306;8.500;2023-04-24T10:36:28;1.83;;;1.70;;
9722;SDS011;4900;49.306;8.500;2023-04-24T10:38:58;1.70;;;1.60;;
9722;SDS011;4900;49.306;8.500;2023-04-24T10:41:26;2.13;;;1.92;;
9722;SDS011;4900;49.306;8.500;2023-04-24T10:44:07;2.38;;;1.75;;
9722;SDS011;4900;49.306;8.500;2023-04-24T10:46:35;1.90;;;1.80;;
9722;SDS011;4900;49.306;8.500;2023-04-24T10:49:10;1.75;;;1.65;;
9722;SDS011;4900;49.306;8.500;2023-04-24T10:51:48;2.42;;;1.70;;
9722;SDS011;4900;49.306;8.500;2023-04-24T10:54:21;2.05;;;1.85;;
9722;SDS011;4900;49.306;8.500;2023-04-24T10:56:47;2.20;;;2.00;;
9722;SDS011;4900;49.306;8.500;2023-04-24T10:59:13;3.13;;;2.05;;
9722;SDS011;4900;49.306;8.500;2023-04-24T11:01:53;3.13;;;2.03;;
9722;SDS011;4900;49.306;8.500;2023-04-24T11:04:29;2.92;;;2.72;;
9722;SDS011;4900;49.306;8.500;2023-04-24T11:06:56;2.35;;;2.10;;
9722;SDS011;4900;49.306;8.500;2023-04-24T11:09:22;2.30;;;2.10;;
9722;SDS011;4900;49.306;8.500;2023-04-24T11:11:51;2.33;;;2.13;;
9722;SDS011;4900;49.306;8.500;2023-04-24T11:14:29;1.98;;;1.83;;
9722;SDS011;4900;49.306;8.500;2023-04-24T11:16:54;2.70;;;2.00;;
9722;SDS011;4900;49.306;8.500;2023-04-24T11:19:26;2.17;;;1.98;;
9722;SDS011;4900;49.306;8.500;2023-04-24T11:21:54;2.40;;;2.05;;
9722;SDS011;4900;49.306;8.500;2023-04-24T11:29:48;3.03;;;2.72;;
9722;SDS011;4900;49.306;8.500;2023-04-24T11:34:59;2.33;;;2.13;;
9722;SDS011;4900;49.306;8.500;2023-04-24T11:37:33;2.40;;;2.20;;
9722;SDS011;4900;49.306;8.500;2023-04-24T11:40:03;2.35;;;2.10;;
9722;SDS011;4900;49.306;8.500;2023-04-24T11:42:34;2.55;;;2.28;;
9722;SDS011;4900;49.306;8.500;2023-04-24T11:45:00;2.50;;;2.30;;
9722;SDS011;4900;49.306;8.500;2023-04-24T11:47:30;2.33;;;2.13;;
9722;SDS011;4900;49.306;8.500;2023-04-24T11:49:57;2.47;;;2.28;;
9722;SDS011;4900;49.306;8.500;2023-04-24T11:52:23;2.67;;;2.47;;
9722;SDS011;4900;49.306;8.500;2023-04-24T11:54:49;2.60;;;2.40;;
9722;SDS011;4900;49.306;8.500;2023-04-24T11:57:15;3.03;;;2.60;;
9722;SDS011;4900;49.306;8.500;2023-04-24T11:59:41;2.60;;;2.22;;
9722;SDS011;4900;49.306;8.500;2023-04-24T12:02:06;2.40;;;2.20;;
9722;SDS011;4900;49.306;8.500;2023-04-24T12:04:39;2.40;;;2.15;;
9722;SDS011;4900;49.306;8.500;2023-04-24T12:07:06;2.88;;;2.20;;
9722;SDS011;4900;49.306;8.500;2023-04-24T12:09:46;2.83;;;2.53;;
9722;SDS011;4900;49.306;8.500;2023-04-24T12:12:13;2.38;;;2.17;;
9722;SDS011;4900;49.306;8.500;2023-04-24T12:17:23;2.65;;;2.25;;
9722;SDS011;4900;49.306;8.500;2023-04-24T12:20:07;2.40;;;2.20;;
9722;SDS011;4900;49.306;8.500;2023-04-24T12:22:46;3.05;;;2.58;;
9722;SDS011;4900;49.306;8.500;2023-04-24T12:25:12;2.50;;;2.30;;
9722;SDS011;4900;49.306;8.500;2023-04-24T12:27:38;1.95;;;1.75;;
9722;SDS011;4900;49.306;8.500;2023-04-24T12:30:04;2.55;;;2.25;;
9722;SDS011;4900;49.306;8.500;2023-04-24T12:32:31;2.50;;;2.17;;
9722;SDS011;4900;49.306;8.500;2023-04-24T12:34:57;2.30;;;2.10;;
9722;SDS011;4900;49.306;8.500;2023-04-24T12:37:23;2.63;;;2.30;;
9722;SDS011;4900;49.306;8.500;2023-04-24T12:40:00;3.85;;;2.28;;
9722;SDS011;4900;49.306;8.500;2023-04-24T12:42:33;2.33;;;2.00;;
9722;SDS011;4900;49.306;8.500;2023-04-24T12:45:04;2.78;;;2.25;;
9722;SDS011;4900;49.306;8.500;2023-04-24T12:47:31;2.20;;;2.00;;
9722;SDS011;4900;49.306;8.500;2023-04-24T12:49:57;2.83;;;2.25;;
9722;SDS011;4900;49.306;8.500;2023-04-24T12:52:23;3.63;;;2.30;;
9722;SDS011;4900;49.306;8.500;2023-04-24T12:54:52;2.88;;;2.40;;
9722;SDS011;4900;49.306;8.500;2023-04-24T12:57:19;2.20;;;2.00;;
9722;SDS011;4900;49.306;8.500;2023-04-24T12:59:44;2.60;;;2.40;;
9722;SDS011;4900;49.306;8.500;2023-04-24T13:02:10;3.58;;;2.30;;
9722;SDS011;4900;49.306;8.500;2023-04-24T13:04:36;2.40;;;2.00;;
9722;SDS011;4900;49.306;8.500;2023-04-24T13:07:02;3.00;;;2.45;;
9722;SDS011;4900;49.306;8.500;2023-04-24T13:09:27;4.45;;;2.38;;
9722;SDS011;4900;49.306;8.500;2023-04-24T13:11:53;2.40;;;2.08;;
9722;SDS011;4900;49.306;8.500;2023-04-24T13:14:20;2.63;;;2.20;;
9722;SDS011;4900;49.306;8.500;2023-04-24T13:16:46;2.60;;;2.40;;
9722;SDS011;4900;49.306;8.500;2023-04-24T13:19:12;3.85;;;2.55;;
9722;SDS011;4900;49.306;8.500;2023-04-24T13:21:37;2.50;;;2.30;;
9722;SDS011;4900;49.306;8.500;2023-04-24T13:24:03;2.33;;;2.13;;
9722;SDS011;4900;49.306;8.500;2023-04-24T13:26:30;3.67;;;2.60;;
9722;SDS011;4900;49.306;8.500;2023-04-24T13:28:55;2.28;;;2.05;;
9722;SDS011;4900;49.306;8.500;2023-04-24T13:31:21;2.30;;;2.10;;
9722;SDS011;4900;49.306;8.500;2023-04-24T13:33:46;2.38;;;2.08;;
9722;SDS011;4900;49.306;8.500;2023-04-24T13:36:11;2.55;;;2.10;;
9722;SDS011;4900;49.306;8.500;2023-04-24T13:38:37;2.17;;;1.98;;
9722;SDS011;4900;49.306;8.500;2023-04-24T13:41:02;2.10;;;1.90;;
9722;SDS011;4900;49.306;8.500;2023-04-24T13:43:28;6.78;;;5.47;;
9722;SDS011;4900;49.306;8.500;2023-04-24T13:45:53;11.35;;;7.82;;
9722;SDS011;4900;49.306;8.500;2023-04-24T13:48:19;5.97;;;5.05;;
9722;SDS011;4900;49.306;8.500;2023-04-24T13:50:44;4.93;;;3.80;;
9722;SDS011;4900;49.306;8.500;2023-04-24T13:53:14;4.50;;;3.25;;
9722;SDS011;4900;49.306;8.500;2023-04-24T13:55:39;3.85;;;3.08;;
9722;SDS011;4900;49.306;8.500;2023-04-24T13:58:05;2.50;;;2.30;;
9722;SDS011;4900;49.306;8.500;2023-04-24T14:00:30;2.83;;;2.50;;
9722;SDS011;4900;49.306;8.500;2023-04-24T14:02:56;2.97;;;2.67;;
9722;SDS011;4900;49.306;8.500;2023-04-24T14:05:21;2.53;;;2.33;;
9722;SDS011;4900;49.306;8.500;2023-04-24T14:07:47;2.83;;;2.40;;
9722;SDS011;4900;49.306;8.500;2023-04-24T14:10:12;2.95;;;2.15;;
9722;SDS011;4900;49.306;8.500;2023-04-24T14:12:38;2.60;;;2.28;;
9722;SDS011;4900;49.306;8.500;2023-04-24T14:15:04;2.38;;;2.15;;
9722;SDS011;4900;49.306;8.500;2023-04-24T14:17:30;2.30;;;2.10;;
9722;SDS011;4900;49.306;8.500;2023-04-24T14:19:56;2.60;;;2.30;;
9722;SDS011;4900;49.306;8.500;2023-04-24T14:22:22;3.55;;;2.25;;
9722;SDS011;4900;49.306;8.500;2023-04-24T14:24:47;2.47;;;2.20;;
9722;SDS011;4900;49.306;8.500;2023-04-24T14:27:13;3.20;;;2.15;;
9722;SDS011;4900;49.306;8.500;2023-04-24T14:29:38;2.67;;;2.05;;
9722;SDS011;4900;49.306;8.500;2023-04-24T14:32:04;2.70;;;2.47;;
9722;SDS011;4900;49.306;8.500;2023-04-24T14:34:30;2.55;;;2.22;;
9722;SDS011;4900;49.306;8.500;2023-04-24T14:36:55;2.45;;;2.03;;
9722;SDS011;4900;49.306;8.500;2023-04-24T14:39:21;2.17;;;1.98;;
9722;SDS011;4900;49.306;8.500;2023-04-24T14:41:47;2.45;;;2.20;;
9722;SDS011;4900;49.306;8.500;2023-04-24T14:44:12;2.50;;;2.20;;
9722;SDS011;4900;49.306;8.500;2023-04-24T14:46:37;2.30;;;2.10;;
9722;SDS011;4900;49.306;8.500;2023-04-24T14:49:03;3.50;;;3.00;;
9722;SDS011;4900;49.306;8.500;2023-04-24T14:51:28;3.00;;;2.72;;
9722;SDS011;4900;49.306;8.500;2023-04-24T14:53:55;3.08;;;2.72;;
9722;SDS011;4900;49.306;8.500;2023-04-24T14:56:21;2.63;;;2.42;;
9722;SDS011;4900;49.306;8.500;2023-04-24T14:58:46;2.72;;;2.45;;
9722;SDS011;4900;49.306;8.500;2023-04-24T15:01:12;2.67;;;2.40;;
9722;SDS011;4900;49.306;8.500;2023-04-24T15:03:37;3.05;;;2.75;;
9722;SDS011;4900;49.306;8.500;2023-04-24T15:06:03;2.38;;;2.17;;
9722;SDS011;4900;49.306;8.500;2023-04-24T15:08:29;3.75;;;2.55;;
9722;SDS011;4900;49.306;8.500;2023-04-24T15:10:54;2.53;;;2.25;;
9722;SDS011;4900;49.306;8.500;2023-04-24T15:13:20;3.00;;;2.70;;
9722;SDS011;4900;49.306;8.500;2023-04-24T15:15:48;3.88;;;3.00;;
9722;SDS011;4900;49.306;8.500;2023-04-24T15:18:14;4.57;;;3.10;;
9722;SDS011;4900;49.306;8.500;2023-04-24T15:20:39;3.15;;;2.83;;
9722;SDS011;4900;49.306;8.500;2023-04-24T15:23:07;3.97;;;2.72;;